sensor_id;sensor_type;location;lat;lon;timestamp;P1;durP1;ratioP1;P2;durP2;ratioP2
8171;SDS011;4127;47.908;10.850;2023-07-13T00:00:10;3.23;;;3.03;;
8171;SDS011;4127;47.908;10.850;2023-07-13T00:02:38;2.60;;;2.40;;
8171;SDS011;4127;47.908;10.850;2023-07-13T00:05:05;3.30;;;3.00;;
8171;SDS011;4127;47.908;10.850;2023-07-13T00:07:33;2.80;;;2.60;;
8171;SDS011;4127;47.908;10.850;2023-07-13T00:10:00;2.80;;;2.60;;
8171;SDS011;4127;47.908;10.850;2023-07-13T00:12:31;3.77;;;3.27;;
8171;SDS011;4127;47.908;10.850;2023-07-13T00:15:00;2.97;;;2.67;;
8171;SDS011;4127;47.908;10.850;2023-07-13T00:17:29;4.87;;;3.20;;
8171;SDS011;4127;47.908;10.850;2023-07-13T00:19:56;3.73;;;3.43;;
8171;SDS011;4127;47.908;10.850;2023-07-13T00:22:23;3.33;;;3.07;;
8171;SDS011;4127;47.908;10.850;2023-07-13T00:24:52;3.30;;;3.00;;
8171;SDS011;4127;47.908;10.850;2023-07-13T00:27:21;3.57;;;3.27;;
8171;SDS011;4127;47.908;10.850;2023-07-13T00:29:49;3.90;;;3.10;;
8171;SDS011;4127;47.908;10.850;2023-07-13T00:32:16;4.63;;;3.33;;
8171;SDS011;4127;47.908;10.850;2023-07-13T00:34:43;3.23;;;2.93;;
8171;SDS011;4127;47.908;10.850;2023-07-13T00:37:09;3.30;;;3.00;;
8171;SDS011;4127;47.908;10.850;2023-07-13T00:39:37;3.27;;;2.97;;
8171;SDS011;4127;47.908;10.850;2023-07-13T00:42:05;3.17;;;2.87;;
8171;SDS011;4127;47.908;10.850;2023-07-13T00:44:32;2.93;;;2.63;;
8171;SDS011;4127;47.908;10.850;2023-07-13T00:46:59;3.27;;;2.97;;
8171;SDS011;4127;47.908;10.850;2023-07-13T00:49:27;3.80;;;2.90;;
8171;SDS011;4127;47.908;10.850;2023-07-13T00:52:00;3.07;;;2.80;;
8171;SDS011;4127;47.908;10.850;2023-07-13T00:54:35;3.00;;;2.70;;
8171;SDS011;4127;47.908;10.850;2023-07-13T00:57:06;3.10;;;2.87;;
8171;SDS011;4127;47.908;10.850;2023-07-13T00:59:36;2.73;;;2.53;;
8171;SDS011;4127;47.908;10.850;2023-07-13T01:02:05;2.60;;;2.40;;
8171;SDS011;4127;47.908;10.850;2023-07-13T01:04:32;2.90;;;2.70;;
8171;SDS011;4127;47.908;10.850;2023-07-13T01:06:59;2.60;;;2.40;;
8171;SDS011;4127;47.908;10.850;2023-07-13T01:09:26;3.43;;;2.80;;
8171;SDS011;4127;47.908;10.850;2023-07-13T01:11:53;2.97;;;2.57;;
8171;SDS011;4127;47.908;10.850;2023-07-13T01:14:20;2.60;;;2.40;;
8171;SDS011;4127;47.908;10.850;2023-07-13T01:16:47;2.97;;;2.60;;
8171;SDS011;4127;47.908;10.850;2023-07-13T01:21:51;3.30;;;2.70;;
8171;SDS011;4127;47.908;10.850;2023-07-13T01:24:19;2.70;;;2.50;;
8171;SDS011;4127;47.908;10.850;2023-07-13T01:26:46;2.93;;;2.60;;
8171;SDS011;4127;47.908;10.850;2023-07-13T01:29:12;2.40;;;2.20;;
8171;SDS011;4127;47.908;10.850;2023-07-13T01:31:39;2.60;;;2.40;;
8171;SDS011;4127;47.908;10.850;2023-07-13T01:34:06;2.50;;;2.30;;
8171;SDS011;4127;47.908;10.850;2023-07-13T01:36:34;2.80;;;2.60;;
8171;SDS011;4127;47.908;10.850;2023-07-13T01:39:00;3.40;;;2.70;;
8171;SDS011;4127;47.908;10.850;2023-07-13T01:41:27;3.83;;;3.03;;
8171;SDS011;4127;47.908;10.850;2023-07-13T01:43:54;2.70;;;2.50;;
8171;SDS011;4127;47.908;10.850;2023-07-13T01:46:21;2.93;;;2.73;;
8171;SDS011;4127;47.908;10.850;2023-07-13T01:48:49;3.43;;;3.10;;
8171;SDS011;4127;47.908;10.850;2023-07-13T01:51:18;3.23;;;2.93;;
8171;SDS011;4127;47.908;10.850;2023-07-13T01:53:45;3.40;;;3.10;;
8171;SDS011;4127;47.908;10.850;2023-07-13T01:56:12;3.50;;;3.20;;
8171;SDS011;4127;47.908;10.850;2023-07-13T01:58:39;3.27;;;2.97;;
8171;SDS011;4127;47.908;10.850;2023-07-13T02:01:06;3.13;;;2.93;;
8171;SDS011;4127;47.908;10.850;2023-07-13T02:03:33;4.40;;;3.03;;
8171;SDS011;4127;47.908;10.850;2023-07-13T02:06:00;2.90;;;2.70;;
8171;SDS011;4127;47.908;10.850;2023-07-13T02:08:27;3.07;;;2.77;;
8171;SDS011;4127;47.908;10.850;2023-07-13T02:10:54;3.23;;;2.97;;
8171;SDS011;4127;47.908;10.850;2023-07-13T02:13:20;3.40;;;3.10;;
8171;SDS011;4127;47.908;10.850;2023-07-13T02:15:49;3.50;;;2.90;;
8171;SDS011;4127;47.908;10.850;2023-07-13T02:18:17;3.57;;;3.27;;
8171;SDS011;4127;47.908;10.850;2023-07-13T02:20:44;3.30;;;3.00;;
8171;SDS011;4127;47.908;10.850;2023-07-13T02:23:11;3.43;;;3.13;;
8171;SDS011;4127;47.908;10.850;2023-07-13T02:25:38;3.20;;;2.90;;
8171;SDS011;4127;47.908;10.850;2023-07-13T02:28:05;3.47;;;3.20;;
8171;SDS011;4127;47.908;10.850;2023-07-13T02:30:32;3.00;;;2.70;;
8171;SDS011;4127;47.908;10.850;2023-07-13T02:33:00;3.00;;;2.80;;
8171;SDS011;4127;47.908;10.850;2023-07-13T02:35:27;3.67;;;3.37;;
8171;SDS011;4127;47.908;10.850;2023-07-13T02:37:54;3.00;;;2.80;;
8171;SDS011;4127;47.908;10.850;2023-07-13T02:40:20;4.23;;;3.83;;
8171;SDS011;4127;47.908;10.850;2023-07-13T02:42:47;3.87;;;3.50;;
8171;SDS011;4127;47.908;10.850;2023-07-13T02:45:14;3.90;;;3.60;;
8171;SDS011;4127;47.908;10.850;2023-07-13T02:47:41;4.37;;;4.07;;
8171;SDS011;4127;47.908;10.850;2023-07-13T02:50:08;6.20;;;4.03;;
8171;SDS011;4127;47.908;10.850;2023-07-13T02:52:35;4.43;;;3.87;;
8171;SDS011;4127;47.908;10.850;2023-07-13T02:55:02;3.90;;;3.60;;
8171;SDS011;4127;47.908;10.850;2023-07-13T02:57:29;4.20;;;3.80;;
8171;SDS011;4127;47.908;10.850;2023-07-13T02:59:56;4.27;;;3.93;;
8171;SDS011;4127;47.908;10.850;2023-07-13T03:02:23;4.30;;;3.47;;
8171;SDS011;4127;47.908;10.850;2023-07-13T03:04:50;3.57;;;3.27;;
8171;SDS011;4127;47.908;10.850;2023-07-13T03:07:17;3.50;;;3.20;;
8171;SDS011;4127;47.908;10.850;2023-07-13T03:12:14;5.87;;;4.07;;
8171;SDS011;4127;47.908;10.850;2023-07-13T03:14:41;3.87;;;3.57;;
8171;SDS011;4127;47.908;10.850;2023-07-13T03:17:07;4.50;;;4.10;;
8171;SDS011;4127;47.908;10.850;2023-07-13T03:19:34;3.57;;;3.27;;
8171;SDS011;4127;47.908;10.850;2023-07-13T03:22:01;3.70;;;3.40;;
8171;SDS011;4127;47.908;10.850;2023-07-13T03:24:28;4.00;;;3.10;;
8171;SDS011;4127;47.908;10.850;2023-07-13T03:26:54;3.63;;;3.33;;
8171;SDS011;4127;47.908;10.850;2023-07-13T03:29:21;3.97;;;3.57;;
8171;SDS011;4127;47.908;10.850;2023-07-13T03:31:48;4.03;;;3.67;;
8171;SDS011;4127;47.908;10.850;2023-07-13T03:34:15;3.97;;;3.60;;
8171;SDS011;4127;47.908;10.850;2023-07-13T03:36:41;3.77;;;3.40;;
8171;SDS011;4127;47.908;10.850;2023-07-13T03:39:08;4.10;;;3.70;;
8171;SDS011;4127;47.908;10.850;2023-07-13T03:41:35;3.93;;;3.63;;
8171;SDS011;4127;47.908;10.850;2023-07-13T03:44:02;3.67;;;3.37;;
8171;SDS011;4127;47.908;10.850;2023-07-13T03:46:29;4.00;;;3.60;;
8171;SDS011;4127;47.908;10.850;2023-07-13T03:48:56;4.07;;;3.70;;
8171;SDS011;4127;47.908;10.850;2023-07-13T03:51:23;5.60;;;3.60;;
8171;SDS011;4127;47.908;10.850;2023-07-13T03:53:50;3.70;;;3.40;;
8171;SDS011;4127;47.908;10.850;2023-07-13T03:56:17;4.37;;;3.97;;
8171;SDS011;4127;47.908;10.850;2023-07-13T03:58:46;4.33;;;3.93;;
8171;SDS011;4127;47.908;10.850;2023-07-13T04:01:14;4.50;;;3.90;;
8171;SDS011;4127;47.908;10.850;2023-07-13T04:03:43;5.07;;;4.00;;
8171;SDS011;4127;47.908;10.850;2023-07-13T04:06:15;3.63;;;3.33;;
8171;SDS011;4127;47.908;10.850;2023-07-13T04:08:51;4.20;;;3.80;;
8171;SDS011;4127;47.908;10.850;2023-07-13T04:11:20;4.13;;;3.73;;
8171;SDS011;4127;47.908;10.850;2023-07-13T04:13:48;4.17;;;3.83;;
8171;SDS011;4127;47.908;10.850;2023-07-13T04:16:16;3.70;;;3.40;;
8171;SDS011;4127;47.908;10.850;2023-07-13T04:18:45;4.10;;;3.70;;
8171;SDS011;4127;47.908;10.850;2023-07-13T04:21:13;4.90;;;4.50;;
8171;SDS011;4127;47.908;10.850;2023-07-13T04:23:40;4.37;;;3.60;;
8171;SDS011;4127;47.908;10.850;2023-07-13T04:26:07;4.10;;;3.70;;
8171;SDS011;4127;47.908;10.850;2023-07-13T04:28:35;4.07;;;3.77;;
8171;SDS011;4127;47.908;10.850;2023-07-13T04:31:02;3.80;;;3.50;;
8171;SDS011;4127;47.908;10.850;2023-07-13T04:33:29;3.80;;;3.30;;
8171;SDS011;4127;47.908;10.850;2023-07-13T04:35:56;3.60;;;3.30;;
8171;SDS011;4127;47.908;10.850;2023-07-13T04:38:24;3.97;;;3.43;;
8171;SDS011;4127;47.908;10.850;2023-07-13T04:40:58;4.73;;;4.03;;
8171;SDS011;4127;47.908;10.850;2023-07-13T04:43:27;4.00;;;3.63;;
8171;SDS011;4127;47.908;10.850;2023-07-13T04:45:54;4.03;;;3.67;;
8171;SDS011;4127;47.908;10.850;2023-07-13T04:48:21;5.33;;;4.50;;
8171;SDS011;4127;47.908;10.850;2023-07-13T04:50:54;3.60;;;3.30;;
8171;SDS011;4127;47.908;10.850;2023-07-13T04:53:22;4.17;;;3.50;;
8171;SDS011;4127;47.908;10.850;2023-07-13T04:55:49;3.50;;;3.20;;
8171;SDS011;4127;47.908;10.850;2023-07-13T04:58:16;3.83;;;3.53;;
8171;SDS011;4127;47.908;10.850;2023-07-13T05:00:43;3.60;;;3.30;;
8171;SDS011;4127;47.908;10.850;2023-07-13T05:03:10;4.00;;;3.60;;
8171;SDS011;4127;47.908;10.850;2023-07-13T05:05:37;3.70;;;3.40;;
8171;SDS011;4127;47.908;10.850;2023-07-13T05:08:04;3.60;;;3.30;;
8171;SDS011;4127;47.908;10.850;2023-07-13T05:10:30;4.03;;;3.27;;
8171;SDS011;4127;47.908;10.850;2023-07-13T05:12:57;3.93;;;3.53;;
8171;SDS011;4127;47.908;10.850;2023-07-13T05:15:24;3.50;;;3.20;;
8171;SDS011;4127;47.908;10.850;2023-07-13T05:17:51;3.47;;;3.17;;
8171;SDS011;4127;47.908;10.850;2023-07-13T05:20:18;3.78;;;3.47;;
8171;SDS011;4127;47.908;10.850;2023-07-13T05:22:45;3.57;;;3.27;;
8171;SDS011;4127;47.908;10.850;2023-07-13T05:25:17;3.50;;;3.20;;
8171;SDS011;4127;47.908;10.850;2023-07-13T05:27:44;3.90;;;3.30;;
8171;SDS011;4127;47.908;10.850;2023-07-13T05:30:12;3.20;;;2.93;;
8171;SDS011;4127;47.908;10.850;2023-07-13T05:32:39;3.43;;;3.10;;
8171;SDS011;4127;47.908;10.850;2023-07-13T05:35:07;5.13;;;3.70;;
8171;SDS011;4127;47.908;10.850;2023-07-13T05:37:34;4.00;;;3.43;;
8171;SDS011;4127;47.908;10.850;2023-07-13T05:40:01;3.53;;;3.23;;
8171;SDS011;4127;47.908;10.850;2023-07-13T05:42:28;3.80;;;3.50;;
8171;SDS011;4127;47.908;10.850;2023-07-13T05:44:54;3.80;;;3.10;;
8171;SDS011;4127;47.908;10.850;2023-07-13T05:47:21;3.50;;;3.20;;
8171;SDS011;4127;47.908;10.850;2023-07-13T05:49:48;4.13;;;3.60;;
8171;SDS011;4127;47.908;10.850;2023-07-13T05:52:15;4.20;;;3.33;;
8171;SDS011;4127;47.908;10.850;2023-07-13T05:54:42;3.87;;;3.10;;
8171;SDS011;4127;47.908;10.850;2023-07-13T05:57:08;3.43;;;2.87;;
8171;SDS011;4127;47.908;10.850;2023-07-13T05:59:35;3.97;;;3.20;;
8171;SDS011;4127;47.908;10.850;2023-07-13T06:02:03;2.80;;;2.60;;
8171;SDS011;4127;47.908;10.850;2023-07-13T06:04:30;2.93;;;2.60;;
8171;SDS011;4127;47.908;10.850;2023-07-13T06:06:56;2.60;;;2.40;;
8171;SDS011;4127;47.908;10.850;2023-07-13T06:09:23;2.83;;;2.50;;
8171;SDS011;4127;47.908;10.850;2023-07-13T06:11:50;3.00;;;2.60;;
8171;SDS011;4127;47.908;10.850;2023-07-13T06:14:17;2.70;;;2.50;;
8171;SDS011;4127;47.908;10.850;2023-07-13T06:16:44;2.30;;;2.07;;
8171;SDS011;4127;47.908;10.850;2023-07-13T06:19:11;3.10;;;2.80;;
8171;SDS011;4127;47.908;10.850;2023-07-13T06:21:38;2.67;;;2.47;;
8171;SDS011;4127;47.908;10.850;2023-07-13T06:24:05;2.80;;;2.50;;
8171;SDS011;4127;47.908;10.850;2023-07-13T06:26:32;3.10;;;2.80;;
8171;SDS011;4127;47.908;10.850;2023-07-13T06:28:59;3.27;;;2.97;;
8171;SDS011;4127;47.908;10.850;2023-07-13T06:31:25;2.97;;;2.53;;
8171;SDS011;4127;47.908;10.850;2023-07-13T06:33:52;3.37;;;2.83;;
8171;SDS011;4127;47.908;10.850;2023-07-13T06:36:19;3.20;;;2.80;;
8171;SDS011;4127;47.908;10.850;2023-07-13T06:38:46;2.77;;;2.57;;
8171;SDS011;4127;47.908;10.850;2023-07-13T06:41:12;3.60;;;2.77;;
8171;SDS011;4127;47.908;10.850;2023-07-13T06:43:40;3.73;;;2.60;;
8171;SDS011;4127;47.908;10.850;2023-07-13T06:46:07;5.40;;;3.90;;
8171;SDS011;4127;47.908;10.850;2023-07-13T06:48:34;3.60;;;2.63;;
8171;SDS011;4127;47.908;10.850;2023-07-13T06:51:02;3.07;;;2.27;;
8171;SDS011;4127;47.908;10.850;2023-07-13T06:53:29;3.30;;;2.30;;
8171;SDS011;4127;47.908;10.850;2023-07-13T06:55:56;2.97;;;2.67;;
8171;SDS011;4127;47.908;10.850;2023-07-13T06:58:23;3.73;;;2.47;;
8171;SDS011;4127;47.908;10.850;2023-07-13T07:00:50;2.70;;;2.50;;
8171;SDS011;4127;47.908;10.850;2023-07-13T07:03:18;2.77;;;2.17;;
8171;SDS011;4127;47.908;10.850;2023-07-13T07:05:45;5.70;;;5.10;;
8171;SDS011;4127;47.908;10.850;2023-07-13T07:08:12;4.10;;;3.47;;
8171;SDS011;4127;47.908;10.850;2023-07-13T07:10:40;3.10;;;2.40;;
8171;SDS011;4127;47.908;10.850;2023-07-13T07:13:07;4.13;;;2.40;;
8171;SDS011;4127;47.908;10.850;2023-07-13T07:15:34;3.53;;;2.50;;
8171;SDS011;4127;47.908;10.850;2023-07-13T07:18:01;2.70;;;2.50;;
8171;SDS011;4127;47.908;10.850;2023-07-13T07:20:29;2.70;;;2.50;;
8171;SDS011;4127;47.908;10.850;2023-07-13T07:22:56;2.50;;;2.30;;
8171;SDS011;4127;47.908;10.850;2023-07-13T07:25:24;2.63;;;2.30;;
8171;SDS011;4127;47.908;10.850;2023-07-13T07:27:50;2.73;;;2.53;;
8171;SDS011;4127;47.908;10.850;2023-07-13T07:30:20;2.50;;;2.30;;
8171;SDS011;4127;47.908;10.850;2023-07-13T07:32:50;2.20;;;2.10;;
8171;SDS011;4127;47.908;10.850;2023-07-13T07:35:19;1.97;;;1.80;;
8171;SDS011;4127;47.908;10.850;2023-07-13T07:37:46;3.20;;;2.20;;
8171;SDS011;4127;47.908;10.850;2023-07-13T07:40:16;2.00;;;1.90;;
8171;SDS011;4127;47.908;10.850;2023-07-13T07:42:46;2.33;;;1.90;;
8171;SDS011;4127;47.908;10.850;2023-07-13T07:45:13;3.03;;;2.10;;
8171;SDS011;4127;47.908;10.850;2023-07-13T07:47:41;2.17;;;1.93;;
8171;SDS011;4127;47.908;10.850;2023-07-13T07:50:08;1.93;;;1.83;;
8171;SDS011;4127;47.908;10.850;2023-07-13T07:52:35;2.77;;;2.20;;
8171;SDS011;4127;47.908;10.850;2023-07-13T07:55:03;2.47;;;2.10;;
8171;SDS011;4127;47.908;10.850;2023-07-13T07:57:35;2.17;;;2.07;;
8171;SDS011;4127;47.908;10.850;2023-07-13T08:00:05;2.20;;;2.00;;
8171;SDS011;4127;47.908;10.850;2023-07-13T08:02:35;2.27;;;2.07;;
8171;SDS011;4127;47.908;10.850;2023-07-13T08:05:05;2.43;;;2.23;;
8171;SDS011;4127;47.908;10.850;2023-07-13T08:07:36;2.50;;;2.30;;
8171;SDS011;4127;47.908;10.850;2023-07-13T08:10:05;2.40;;;2.20;;
8171;SDS011;4127;47.908;10.850;2023-07-13T08:12:34;2.10;;;2.00;;
8171;SDS011;4127;47.908;10.850;2023-07-13T08:15:04;3.10;;;2.27;;
8171;SDS011;4127;47.908;10.850;2023-07-13T08:17:32;2.37;;;2.17;;
8171;SDS011;4127;47.908;10.850;2023-07-13T08:19:59;2.77;;;2.03;;
8171;SDS011;4127;47.908;10.850;2023-07-13T08:22:26;3.40;;;1.90;;
8171;SDS011;4127;47.908;10.850;2023-07-13T08:24:53;2.23;;;2.07;;
8171;SDS011;4127;47.908;10.850;2023-07-13T08:27:23;2.33;;;2.13;;
8171;SDS011;4127;47.908;10.850;2023-07-13T08:29:50;2.37;;;2.17;;
8171;SDS011;4127;47.908;10.850;2023-07-13T08:32:19;2.23;;;2.10;;
8171;SDS011;4127;47.908;10.850;2023-07-13T08:34:47;2.00;;;1.80;;
8171;SDS011;4127;47.908;10.850;2023-07-13T08:37:14;2.10;;;1.90;;
8171;SDS011;4127;47.908;10.850;2023-07-13T08:39:41;2.80;;;1.80;;
8171;SDS011;4127;47.908;10.850;2023-07-13T08:48:15;2.20;;;1.83;;
8171;SDS011;4127;47.908;10.850;2023-07-13T08:51:07;2.10;;;1.90;;
8171;SDS011;4127;47.908;10.850;2023-07-13T08:53:39;1.90;;;1.80;;
8171;SDS011;4127;47.908;10.850;2023-07-13T08:56:17;2.40;;;2.20;;
8171;SDS011;4127;47.908;10.850;2023-07-13T08:58:48;2.60;;;2.40;;
8171;SDS011;4127;47.908;10.850;2023-07-13T09:04:21;3.10;;;2.20;;
8171;SDS011;4127;47.908;10.850;2023-07-13T09:17:03;2.47;;;2.17;;
8171;SDS011;4127;47.908;10.850;2023-07-13T09:19:36;4.10;;;2.37;;
8171;SDS011;4127;47.908;10.850;2023-07-13T09:22:04;2.37;;;2.00;;
8171;SDS011;4127;47.908;10.850;2023-07-13T09:25:00;2.30;;;2.10;;
8171;SDS011;4127;47.908;10.850;2023-07-13T09:27:50;2.83;;;2.40;;
8171;SDS011;4127;47.908;10.850;2023-07-13T09:30:24;2.97;;;2.30;;
8171;SDS011;4127;47.908;10.850;2023-07-13T09:33:08;4.33;;;2.10;;
8171;SDS011;4127;47.908;10.850;2023-07-13T09:35:35;2.13;;;1.90;;
8171;SDS011;4127;47.908;10.850;2023-07-13T09:38:15;2.10;;;1.80;;
8171;SDS011;4127;47.908;10.850;2023-07-13T09:43:29;3.93;;;2.00;;
8171;SDS011;4127;47.908;10.850;2023-07-13T09:45:56;3.67;;;2.27;;
8171;SDS011;4127;47.908;10.850;2023-07-13T09:48:22;2.50;;;2.30;;
8171;SDS011;4127;47.908;10.850;2023-07-13T09:50:54;1.87;;;1.77;;
8171;SDS011;4127;47.908;10.850;2023-07-13T09:53:23;5.00;;;2.03;;
8171;SDS011;4127;47.908;10.850;2023-07-13T09:55:49;1.80;;;1.70;;
8171;SDS011;4127;47.908;10.850;2023-07-13T09:58:20;3.20;;;2.00;;
8171;SDS011;4127;47.908;10.850;2023-07-13T10:00:58;2.23;;;1.80;;
8171;SDS011;4127;47.908;10.850;2023-07-13T10:03:27;2.07;;;1.87;;
8171;SDS011;4127;47.908;10.850;2023-07-13T10:06:12;3.47;;;2.20;;
8171;SDS011;4127;47.908;10.850;2023-07-13T10:08:41;1.77;;;1.60;;
8171;SDS011;4127;47.908;10.850;2023-07-13T10:11:11;2.63;;;1.93;;
8171;SDS011;4127;47.908;10.850;2023-07-13T10:13:45;2.23;;;1.53;;
8171;SDS011;4127;47.908;10.850;2023-07-13T10:16:30;1.60;;;1.50;;
8171;SDS011;4127;47.908;10.850;2023-07-13T10:19:02;2.03;;;1.80;;
8171;SDS011;4127;47.908;10.850;2023-07-13T10:21:50;1.87;;;1.37;;
8171;SDS011;4127;47.908;10.850;2023-07-13T10:24:30;3.50;;;1.60;;
8171;SDS011;4127;47.908;10.850;2023-07-13T10:29:47;2.07;;;1.50;;
8171;SDS011;4127;47.908;10.850;2023-07-13T10:32:25;1.87;;;1.57;;
8171;SDS011;4127;47.908;10.850;2023-07-13T10:34:52;2.20;;;1.73;;
8171;SDS011;4127;47.908;10.850;2023-07-13T10:37:23;2.90;;;1.30;;
8171;SDS011;4127;47.908;10.850;2023-07-13T10:39:54;1.60;;;1.50;;
8171;SDS011;4127;47.908;10.850;2023-07-13T10:42:43;1.50;;;1.40;;
8171;SDS011;4127;47.908;10.850;2023-07-13T10:45:16;2.13;;;1.70;;
8171;SDS011;4127;47.908;10.850;2023-07-13T10:47:45;2.50;;;1.70;;
8171;SDS011;4127;47.908;10.850;2023-07-13T10:50:20;3.03;;;1.50;;
8171;SDS011;4127;47.908;10.850;2023-07-13T10:52:52;1.67;;;1.57;;
8171;SDS011;4127;47.908;10.850;2023-07-13T10:58:02;2.60;;;1.20;;
8171;SDS011;4127;47.908;10.850;2023-07-13T11:01:23;2.87;;;1.90;;
8171;SDS011;4127;47.908;10.850;2023-07-13T11:03:34;1.87;;;1.67;;
8171;SDS011;4127;47.908;10.850;2023-07-13T11:06:08;2.33;;;2.00;;
8171;SDS011;4127;47.908;10.850;2023-07-13T11:14:03;1.58;;;1.48;;
8171;SDS011;4127;47.908;10.850;2023-07-13T11:16:50;1.87;;;1.67;;
8171;SDS011;4127;47.908;10.850;2023-07-13T11:22:01;3.15;;;1.70;;
8171;SDS011;4127;47.908;10.850;2023-07-13T11:30:24;3.22;;;1.65;;
8171;SDS011;4127;47.908;10.850;2023-07-13T11:36:00;2.15;;;1.40;;
8171;SDS011;4127;47.908;10.850;2023-07-13T11:38:33;2.15;;;1.55;;
8171;SDS011;4127;47.908;10.850;2023-07-13T11:41:03;2.85;;;1.67;;
8171;SDS011;4127;47.908;10.850;2023-07-13T11:43:33;1.88;;;1.55;;
8171;SDS011;4127;47.908;10.850;2023-07-13T11:46:18;1.40;;;1.30;;
8171;SDS011;4127;47.908;10.850;2023-07-13T11:48:51;2.63;;;1.63;;
8171;SDS011;4127;47.908;10.850;2023-07-13T11:53:47;1.70;;;1.60;;
8171;SDS011;4127;47.908;10.850;2023-07-13T11:56:16;2.25;;;1.52;;
8171;SDS011;4127;47.908;10.850;2023-07-13T11:58:43;2.22;;;1.73;;
8171;SDS011;4127;47.908;10.850;2023-07-13T12:01:21;3.70;;;2.15;;
8171;SDS011;4127;47.908;10.850;2023-07-13T12:03:50;3.05;;;2.10;;
8171;SDS011;4127;47.908;10.850;2023-07-13T12:06:21;3.15;;;2.17;;
8171;SDS011;4127;47.908;10.850;2023-07-13T12:09:08;2.45;;;1.60;;
8171;SDS011;4127;47.908;10.850;2023-07-13T12:11:42;1.60;;;1.50;;
8171;SDS011;4127;47.908;10.850;2023-07-13T12:14:16;2.20;;;1.63;;
8171;SDS011;4127;47.908;10.850;2023-07-13T12:16:44;3.78;;;1.75;;
8171;SDS011;4127;47.908;10.850;2023-07-13T12:19:16;1.73;;;1.50;;
8171;SDS011;4127;47.908;10.850;2023-07-13T12:21:43;1.83;;;1.67;;
8171;SDS011;4127;47.908;10.850;2023-07-13T12:24:14;2.08;;;1.73;;
8171;SDS011;4127;47.908;10.850;2023-07-13T12:26:42;1.63;;;1.52;;
8171;SDS011;4127;47.908;10.850;2023-07-13T12:29:15;1.90;;;1.67;;
8171;SDS011;4127;47.908;10.850;2023-07-13T12:31:44;2.60;;;2.00;;
8171;SDS011;4127;47.908;10.850;2023-07-13T12:34:13;2.97;;;2.10;;
8171;SDS011;4127;47.908;10.850;2023-07-13T12:36:49;3.67;;;2.33;;
8171;SDS011;4127;47.908;10.850;2023-07-13T12:39:38;3.60;;;2.17;;
8171;SDS011;4127;47.908;10.850;2023-07-13T12:42:25;3.22;;;2.00;;
8171;SDS011;4127;47.908;10.850;2023-07-13T12:44:56;2.45;;;2.05;;
8171;SDS011;4127;47.908;10.850;2023-07-13T12:47:31;2.50;;;2.10;;
8171;SDS011;4127;47.908;10.850;2023-07-13T12:50:18;5.03;;;2.22;;
8171;SDS011;4127;47.908;10.850;2023-07-13T12:52:56;2.47;;;2.03;;
8171;SDS011;4127;47.908;10.850;2023-07-13T12:55:29;3.53;;;2.08;;
8171;SDS011;4127;47.908;10.850;2023-07-13T12:57:59;2.33;;;1.90;;
8171;SDS011;4127;47.908;10.850;2023-07-13T13:06:00;2.53;;;2.05;;
8171;SDS011;4127;47.908;10.850;2023-07-13T13:08:42;2.67;;;2.33;;
8171;SDS011;4127;47.908;10.850;2023-07-13T13:11:09;3.05;;;2.10;;
8171;SDS011;4127;47.908;10.850;2023-07-13T13:13:36;2.50;;;2.30;;
8171;SDS011;4127;47.908;10.850;2023-07-13T13:19:10;3.42;;;2.45;;
8171;SDS011;4127;47.908;10.850;2023-07-13T13:21:43;2.53;;;2.33;;
8171;SDS011;4127;47.908;10.850;2023-07-13T13:24:15;2.35;;;2.15;;
8171;SDS011;4127;47.908;10.850;2023-07-13T13:26:46;2.63;;;2.10;;
8171;SDS011;4127;47.908;10.850;2023-07-13T13:29:15;2.97;;;2.53;;
8171;SDS011;4127;47.908;10.850;2023-07-13T13:31:44;2.55;;;2.30;;
8171;SDS011;4127;47.908;10.850;2023-07-13T13:34:12;3.08;;;2.10;;
8171;SDS011;4127;47.908;10.850;2023-07-13T13:36:40;2.97;;;2.10;;
8171;SDS011;4127;47.908;10.850;2023-07-13T13:39:21;2.33;;;2.10;;
8171;SDS011;4127;47.908;10.850;2023-07-13T13:41:50;2.28;;;2.08;;
8171;SDS011;4127;47.908;10.850;2023-07-13T13:44:19;2.25;;;2.05;;
8171;SDS011;4127;47.908;10.850;2023-07-13T13:46:48;2.40;;;2.20;;
8171;SDS011;4127;47.908;10.850;2023-07-13T13:49:22;2.75;;;1.80;;
8171;SDS011;4127;47.908;10.850;2023-07-13T13:51:53;3.03;;;2.03;;
8171;SDS011;4127;47.908;10.850;2023-07-13T13:54:21;2.20;;;1.70;;
8171;SDS011;4127;47.908;10.850;2023-07-13T13:56:50;2.95;;;2.17;;
8171;SDS011;4127;47.908;10.850;2023-07-13T13:59:18;2.50;;;2.10;;
8171;SDS011;4127;47.908;10.850;2023-07-13T14:01:46;2.65;;;2.30;;
8171;SDS011;4127;47.908;10.850;2023-07-13T14:04:17;2.50;;;2.20;;
8171;SDS011;4127;47.908;10.850;2023-07-13T14:06:45;4.10;;;2.35;;
8171;SDS011;4127;47.908;10.850;2023-07-13T14:09:14;2.53;;;2.05;;
8171;SDS011;4127;47.908;10.850;2023-07-13T14:11:42;2.40;;;2.00;;
8171;SDS011;4127;47.908;10.850;2023-07-13T14:14:12;2.53;;;1.98;;
8171;SDS011;4127;47.908;10.850;2023-07-13T14:16:42;3.03;;;2.10;;
8171;SDS011;4127;47.908;10.850;2023-07-13T14:19:11;2.63;;;2.30;;
8171;SDS011;4127;47.908;10.850;2023-07-13T14:21:38;2.28;;;1.95;;
8171;SDS011;4127;47.908;10.850;2023-07-13T14:24:05;2.78;;;2.20;;
8171;SDS011;4127;47.908;10.850;2023-07-13T14:26:35;2.80;;;2.10;;
8171;SDS011;4127;47.908;10.850;2023-07-13T14:29:05;2.75;;;1.92;;
8171;SDS011;4127;47.908;10.850;2023-07-13T14:31:39;2.40;;;1.80;;
8171;SDS011;4127;47.908;10.850;2023-07-13T14:34:07;2.17;;;1.80;;
8171;SDS011;4127;47.908;10.850;2023-07-13T14:36:37;2.92;;;2.40;;
8171;SDS011;4127;47.908;10.850;2023-07-13T14:39:12;2.80;;;2.10;;
8171;SDS011;4127;47.908;10.850;2023-07-13T14:41:41;2.50;;;2.10;;
8171;SDS011;4127;47.908;10.850;2023-07-13T14:44:15;2.47;;;1.80;;
8171;SDS011;4127;47.908;10.850;2023-07-13T14:46:44;2.05;;;1.90;;
8171;SDS011;4127;47.908;10.850;2023-07-13T14:52:19;2.17;;;1.98;;
8171;SDS011;4127;47.908;10.850;2023-07-13T14:54:52;2.30;;;2.10;;
8171;SDS011;4127;47.908;10.850;2023-07-13T14:57:20;2.22;;;2.03;;
8171;SDS011;4127;47.908;10.850;2023-07-13T14:59:47;1.90;;;1.80;;
8171;SDS011;4127;47.908;10.850;2023-07-13T15:05:01;1.80;;;1.70;;
8171;SDS011;4127;47.908;10.850;2023-07-13T15:07:29;2.22;;;2.03;;
8171;SDS011;4127;47.908;10.850;2023-07-13T15:09:56;2.83;;;2.00;;
8171;SDS011;4127;47.908;10.850;2023-07-13T15:12:23;2.47;;;2.00;;
8171;SDS011;4127;47.908;10.850;2023-07-13T15:14:50;2.20;;;2.00;;
8171;SDS011;4127;47.908;10.850;2023-07-13T15:17:23;2.20;;;2.00;;
8171;SDS011;4127;47.908;10.850;2023-07-13T15:19:58;2.40;;;1.80;;
8171;SDS011;4127;47.908;10.850;2023-07-13T15:22:25;5.60;;;2.00;;
8171;SDS011;4127;47.908;10.850;2023-07-13T15:24:52;3.17;;;2.00;;
8171;SDS011;4127;47.908;10.850;2023-07-13T15:27:19;2.25;;;1.73;;
8171;SDS011;4127;47.908;10.850;2023-07-13T15:29:46;2.58;;;1.85;;
8171;SDS011;4127;47.908;10.850;2023-07-13T15:32:13;2.35;;;2.15;;
8171;SDS011;4127;47.908;10.850;2023-07-13T15:34:40;1.92;;;1.83;;
8171;SDS011;4127;47.908;10.850;2023-07-13T15:37:16;2.00;;;1.80;;
8171;SDS011;4127;47.908;10.850;2023-07-13T15:39:43;2.67;;;1.88;;
8171;SDS011;4127;47.908;10.850;2023-07-13T15:42:18;3.78;;;1.70;;
8171;SDS011;4127;47.908;10.850;2023-07-13T15:44:46;2.65;;;1.77;;
8171;SDS011;4127;47.908;10.850;2023-07-13T15:47:14;2.38;;;2.00;;
8171;SDS011;4127;47.908;10.850;2023-07-13T15:49:42;2.45;;;2.05;;
8171;SDS011;4127;47.908;10.850;2023-07-13T15:52:16;1.80;;;1.70;;
8171;SDS011;4127;47.908;10.850;2023-07-13T15:54:48;1.90;;;1.60;;
8171;SDS011;4127;47.908;10.850;2023-07-13T15:57:15;2.03;;;1.83;;
8171;SDS011;4127;47.908;10.850;2023-07-13T15:59:43;2.35;;;1.73;;
8171;SDS011;4127;47.908;10.850;2023-07-13T16:02:11;1.70;;;1.60;;
8171;SDS011;4127;47.908;10.850;2023-07-13T16:04:47;2.08;;;1.88;;
8171;SDS011;4127;47.908;10.850;2023-07-13T16:07:15;3.08;;;2.30;;
8171;SDS011;4127;47.908;10.850;2023-07-13T16:09:47;2.00;;;1.60;;
8171;SDS011;4127;47.908;10.850;2023-07-13T16:12:16;2.28;;;2.03;;
8171;SDS011;4127;47.908;10.850;2023-07-13T16:14:43;3.33;;;1.77;;
8171;SDS011;4127;47.908;10.850;2023-07-13T16:17:11;2.30;;;1.90;;
8171;SDS011;4127;47.908;10.850;2023-07-13T16:19:39;2.00;;;1.80;;